sensor_id;sensor_type;location;lat;lon;timestamp;P1;durP1;ratioP1;P2;durP2;ratioP2
1507;SDS011;745;48.586;10.032;2023-12-20T00:00:10;7.57;;;4.60;;
1507;SDS011;745;48.586;10.032;2023-12-20T00:02:11;6.82;;;5.53;;
1507;SDS011;745;48.586;10.032;2023-12-20T00:04:11;4.77;;;4.33;;
1507;SDS011;745;48.586;10.032;2023-12-20T00:06:12;4.17;;;3.60;;
1507;SDS011;745;48.586;10.032;2023-12-20T00:08:12;2.90;;;2.70;;
1507;SDS011;745;48.586;10.032;2023-12-20T00:10:12;2.50;;;2.30;;
1507;SDS011;745;48.586;10.032;2023-12-20T00:12:13;3.17;;;2.20;;
1507;SDS011;745;48.586;10.032;2023-12-20T00:14:13;2.93;;;2.70;;
1507;SDS011;745;48.586;10.032;2023-12-20T00:16:13;6.77;;;5.37;;
1507;SDS011;745;48.586;10.032;2023-12-20T00:18:14;5.97;;;5.30;;
1507;SDS011;745;48.586;10.032;2023-12-20T00:20:14;5.30;;;4.77;;
1507;SDS011;745;48.586;10.032;2023-12-20T00:22:15;5.33;;;4.80;;
1507;SDS011;745;48.586;10.032;2023-12-20T00:24:15;8.90;;;5.40;;
1507;SDS011;745;48.586;10.032;2023-12-20T00:26:16;7.60;;;5.50;;
1507;SDS011;745;48.586;10.032;2023-12-20T00:28:16;7.53;;;6.00;;
1507;SDS011;745;48.586;10.032;2023-12-20T00:30:17;6.33;;;5.10;;
1507;SDS011;745;48.586;10.032;2023-12-20T00:32:17;8.00;;;5.10;;
1507;SDS011;745;48.586;10.032;2023-12-20T00:34:18;5.27;;;4.60;;
1507;SDS011;745;48.586;10.032;2023-12-20T00:36:18;5.20;;;4.20;;
1507;SDS011;745;48.586;10.032;2023-12-20T00:38:18;4.43;;;4.03;;
1507;SDS011;745;48.586;10.032;2023-12-20T00:40:19;4.13;;;3.47;;
1507;SDS011;745;48.586;10.032;2023-12-20T00:42:20;4.00;;;3.15;;
1507;SDS011;745;48.586;10.032;2023-12-20T00:44:20;3.90;;;3.50;;
1507;SDS011;745;48.586;10.032;2023-12-20T00:46:21;4.47;;;3.20;;
1507;SDS011;745;48.586;10.032;2023-12-20T00:48:21;3.60;;;3.30;;
1507;SDS011;745;48.586;10.032;2023-12-20T00:50:21;4.50;;;4.03;;
1507;SDS011;745;48.586;10.032;2023-12-20T00:52:22;5.03;;;3.90;;
1507;SDS011;745;48.586;10.032;2023-12-20T00:54:22;4.10;;;3.70;;
1507;SDS011;745;48.586;10.032;2023-12-20T00:56:22;3.40;;;3.10;;
1507;SDS011;745;48.586;10.032;2023-12-20T00:58:23;4.20;;;3.80;;
1507;SDS011;745;48.586;10.032;2023-12-20T01:00:24;3.77;;;3.33;;
1507;SDS011;745;48.586;10.032;2023-12-20T01:02:24;4.63;;;3.07;;
1507;SDS011;745;48.586;10.032;2023-12-20T01:04:25;4.13;;;3.60;;
1507;SDS011;745;48.586;10.032;2023-12-20T01:06:25;6.03;;;3.87;;
1507;SDS011;745;48.586;10.032;2023-12-20T01:08:25;4.10;;;3.67;;
1507;SDS011;745;48.586;10.032;2023-12-20T01:10:26;4.37;;;3.47;;
1507;SDS011;745;48.586;10.032;2023-12-20T01:12:28;3.72;;;3.40;;
1507;SDS011;745;48.586;10.032;2023-12-20T01:14:29;4.30;;;3.60;;
1507;SDS011;745;48.586;10.032;2023-12-20T01:16:29;4.30;;;3.43;;
1507;SDS011;745;48.586;10.032;2023-12-20T01:18:29;4.60;;;3.80;;
1507;SDS011;745;48.586;10.032;2023-12-20T01:20:30;5.27;;;3.63;;
1507;SDS011;745;48.586;10.032;2023-12-20T01:22:30;3.83;;;3.23;;
1507;SDS011;745;48.586;10.032;2023-12-20T01:24:30;4.60;;;3.60;;
1507;SDS011;745;48.586;10.032;2023-12-20T01:26:30;3.53;;;3.13;;
1507;SDS011;745;48.586;10.032;2023-12-20T01:28:31;3.90;;;3.53;;
1507;SDS011;745;48.586;10.032;2023-12-20T01:30:32;3.27;;;3.07;;
1507;SDS011;745;48.586;10.032;2023-12-20T01:32:32;3.87;;;3.50;;
1507;SDS011;745;48.586;10.032;2023-12-20T01:34:32;3.67;;;3.37;;
1507;SDS011;745;48.586;10.032;2023-12-20T01:36:33;3.90;;;3.50;;
1507;SDS011;745;48.586;10.032;2023-12-20T01:38:33;3.57;;;3.27;;
1507;SDS011;745;48.586;10.032;2023-12-20T01:40:33;4.43;;;3.47;;
1507;SDS011;745;48.586;10.032;2023-12-20T01:42:34;3.23;;;2.97;;
1507;SDS011;745;48.586;10.032;2023-12-20T01:44:34;3.40;;;3.10;;
1507;SDS011;745;48.586;10.032;2023-12-20T01:46:34;5.47;;;3.70;;
1507;SDS011;745;48.586;10.032;2023-12-20T01:48:34;4.10;;;3.50;;
1507;SDS011;745;48.586;10.032;2023-12-20T01:50:35;4.33;;;3.17;;
1507;SDS011;745;48.586;10.032;2023-12-20T01:52:37;2.90;;;2.70;;
1507;SDS011;745;48.586;10.032;2023-12-20T01:54:37;3.07;;;2.73;;
1507;SDS011;745;48.586;10.032;2023-12-20T01:56:38;2.70;;;2.50;;
1507;SDS011;745;48.586;10.032;2023-12-20T01:58:44;2.90;;;2.53;;
1507;SDS011;745;48.586;10.032;2023-12-20T02:00:45;2.20;;;2.00;;
1507;SDS011;745;48.586;10.032;2023-12-20T02:02:46;2.50;;;2.30;;
1507;SDS011;745;48.586;10.032;2023-12-20T02:04:47;2.40;;;2.20;;
1507;SDS011;745;48.586;10.032;2023-12-20T02:06:48;2.30;;;2.03;;
1507;SDS011;745;48.586;10.032;2023-12-20T02:08:52;2.63;;;2.25;;
1507;SDS011;745;48.586;10.032;2023-12-20T02:10:52;1.73;;;1.63;;
1507;SDS011;745;48.586;10.032;2023-12-20T02:12:53;2.10;;;1.90;;
1507;SDS011;745;48.586;10.032;2023-12-20T02:14:53;2.43;;;2.23;;
1507;SDS011;745;48.586;10.032;2023-12-20T02:16:54;2.13;;;2.03;;
1507;SDS011;745;48.586;10.032;2023-12-20T02:18:54;2.33;;;2.00;;
1507;SDS011;745;48.586;10.032;2023-12-20T02:20:54;2.33;;;2.13;;
1507;SDS011;745;48.586;10.032;2023-12-20T02:22:56;2.35;;;2.15;;
1507;SDS011;745;48.586;10.032;2023-12-20T02:24:56;5.03;;;2.17;;
1507;SDS011;745;48.586;10.032;2023-12-20T02:26:57;2.10;;;2.00;;
1507;SDS011;745;48.586;10.032;2023-12-20T02:28:57;2.47;;;2.27;;
1507;SDS011;745;48.586;10.032;2023-12-20T02:30:58;2.60;;;2.23;;
1507;SDS011;745;48.586;10.032;2023-12-20T02:32:59;2.43;;;2.20;;
1507;SDS011;745;48.586;10.032;2023-12-20T02:35:00;2.50;;;2.30;;
1507;SDS011;745;48.586;10.032;2023-12-20T02:37:00;2.50;;;2.30;;
1507;SDS011;745;48.586;10.032;2023-12-20T02:39:00;3.07;;;2.40;;
1507;SDS011;745;48.586;10.032;2023-12-20T02:41:01;2.03;;;1.83;;
1507;SDS011;745;48.586;10.032;2023-12-20T02:43:01;2.73;;;2.50;;
1507;SDS011;745;48.586;10.032;2023-12-20T02:45:01;3.17;;;2.50;;
1507;SDS011;745;48.586;10.032;2023-12-20T02:47:02;2.40;;;2.10;;
1507;SDS011;745;48.586;10.032;2023-12-20T02:49:02;3.63;;;2.70;;
1507;SDS011;745;48.586;10.032;2023-12-20T02:51:03;2.73;;;2.37;;
1507;SDS011;745;48.586;10.032;2023-12-20T02:53:03;2.30;;;2.10;;
1507;SDS011;745;48.586;10.032;2023-12-20T02:55:04;2.60;;;2.40;;
1507;SDS011;745;48.586;10.032;2023-12-20T02:57:04;2.20;;;2.10;;
1507;SDS011;745;48.586;10.032;2023-12-20T02:59:05;2.93;;;2.50;;
1507;SDS011;745;48.586;10.032;2023-12-20T03:01:09;2.50;;;2.30;;
1507;SDS011;745;48.586;10.032;2023-12-20T03:03:09;8.80;;;2.60;;
1507;SDS011;745;48.586;10.032;2023-12-20T03:05:09;1.90;;;1.80;;
1507;SDS011;745;48.586;10.032;2023-12-20T03:07:10;2.10;;;1.87;;
1507;SDS011;745;48.586;10.032;2023-12-20T03:09:12;2.00;;;1.83;;
1507;SDS011;745;48.586;10.032;2023-12-20T03:11:12;1.70;;;1.60;;
1507;SDS011;745;48.586;10.032;2023-12-20T03:13:12;1.80;;;1.20;;
1507;SDS011;745;48.586;10.032;2023-12-20T03:15:12;2.13;;;1.30;;
1507;SDS011;745;48.586;10.032;2023-12-20T03:17:13;1.47;;;1.10;;
1507;SDS011;745;48.586;10.032;2023-12-20T03:19:13;1.57;;;1.00;;
1507;SDS011;745;48.586;10.032;2023-12-20T03:21:14;1.42;;;1.00;;
1507;SDS011;745;48.586;10.032;2023-12-20T03:23:15;1.00;;;1.00;;
1507;SDS011;745;48.586;10.032;2023-12-20T03:25:15;1.67;;;1.07;;
1507;SDS011;745;48.586;10.032;2023-12-20T03:27:16;0.93;;;0.93;;
1507;SDS011;745;48.586;10.032;2023-12-20T03:29:16;0.90;;;0.90;;
1507;SDS011;745;48.586;10.032;2023-12-20T03:31:16;0.83;;;0.83;;
1507;SDS011;745;48.586;10.032;2023-12-20T03:33:17;1.03;;;0.93;;
1507;SDS011;745;48.586;10.032;2023-12-20T03:35:17;0.80;;;0.80;;
1507;SDS011;745;48.586;10.032;2023-12-20T03:37:17;1.87;;;1.07;;
1507;SDS011;745;48.586;10.032;2023-12-20T03:39:17;1.00;;;0.90;;
1507;SDS011;745;48.586;10.032;2023-12-20T03:41:18;0.90;;;0.90;;
1507;SDS011;745;48.586;10.032;2023-12-20T03:43:18;1.07;;;1.03;;
1507;SDS011;745;48.586;10.032;2023-12-20T03:45:18;0.80;;;0.80;;
1507;SDS011;745;48.586;10.032;2023-12-20T03:47:19;1.33;;;1.00;;
1507;SDS011;745;48.586;10.032;2023-12-20T03:49:19;0.87;;;0.87;;
1507;SDS011;745;48.586;10.032;2023-12-20T03:51:19;1.47;;;0.80;;
1507;SDS011;745;48.586;10.032;2023-12-20T03:53:20;0.90;;;0.90;;
1507;SDS011;745;48.586;10.032;2023-12-20T03:55:20;0.80;;;0.80;;
1507;SDS011;745;48.586;10.032;2023-12-20T03:57:20;0.90;;;0.90;;
1507;SDS011;745;48.586;10.032;2023-12-20T03:59:21;0.80;;;0.80;;
1507;SDS011;745;48.586;10.032;2023-12-20T04:01:22;1.00;;;0.90;;
1507;SDS011;745;48.586;10.032;2023-12-20T04:03:22;1.07;;;0.83;;
1507;SDS011;745;48.586;10.032;2023-12-20T04:05:22;0.80;;;0.80;;
1507;SDS011;745;48.586;10.032;2023-12-20T04:07:23;0.90;;;0.90;;
1507;SDS011;745;48.586;10.032;2023-12-20T04:09:23;0.80;;;0.80;;
1507;SDS011;745;48.586;10.032;2023-12-20T04:11:23;0.80;;;0.80;;
1507;SDS011;745;48.586;10.032;2023-12-20T04:13:24;0.80;;;0.80;;
1507;SDS011;745;48.586;10.032;2023-12-20T04:15:24;0.80;;;0.80;;
1507;SDS011;745;48.586;10.032;2023-12-20T04:17:24;0.80;;;0.80;;
1507;SDS011;745;48.586;10.032;2023-12-20T04:19:25;0.80;;;0.80;;
1507;SDS011;745;48.586;10.032;2023-12-20T04:21:25;1.87;;;0.90;;
1507;SDS011;745;48.586;10.032;2023-12-20T04:23:25;1.00;;;1.00;;
1507;SDS011;745;48.586;10.032;2023-12-20T04:25:25;0.70;;;0.70;;
1507;SDS011;745;48.586;10.032;2023-12-20T04:27:26;0.90;;;0.90;;
1507;SDS011;745;48.586;10.032;2023-12-20T04:29:26;0.83;;;0.83;;
1507;SDS011;745;48.586;10.032;2023-12-20T04:31:27;0.80;;;0.80;;
1507;SDS011;745;48.586;10.032;2023-12-20T04:33:27;0.80;;;0.80;;
1507;SDS011;745;48.586;10.032;2023-12-20T04:35:27;0.80;;;0.80;;
1507;SDS011;745;48.586;10.032;2023-12-20T04:37:28;0.80;;;0.80;;
1507;SDS011;745;48.586;10.032;2023-12-20T04:39:28;0.80;;;0.80;;
1507;SDS011;745;48.586;10.032;2023-12-20T04:41:28;0.80;;;0.80;;
1507;SDS011;745;48.586;10.032;2023-12-20T04:43:29;1.87;;;1.00;;
1507;SDS011;745;48.586;10.032;2023-12-20T04:45:30;0.80;;;0.80;;
1507;SDS011;745;48.586;10.032;2023-12-20T04:47:30;0.90;;;0.90;;
1507;SDS011;745;48.586;10.032;2023-12-20T04:49:30;1.00;;;0.90;;
1507;SDS011;745;48.586;10.032;2023-12-20T04:51:33;0.80;;;0.80;;
1507;SDS011;745;48.586;10.032;2023-12-20T04:53:34;0.80;;;0.80;;
1507;SDS011;745;48.586;10.032;2023-12-20T04:55:34;0.70;;;0.70;;
1507;SDS011;745;48.586;10.032;2023-12-20T04:57:35;0.77;;;0.77;;
1507;SDS011;745;48.586;10.032;2023-12-20T04:59:35;0.90;;;0.90;;
1507;SDS011;745;48.586;10.032;2023-12-20T05:01:35;0.90;;;0.90;;
1507;SDS011;745;48.586;10.032;2023-12-20T05:03:36;0.80;;;0.80;;
1507;SDS011;745;48.586;10.032;2023-12-20T05:05:36;0.80;;;0.80;;
1507;SDS011;745;48.586;10.032;2023-12-20T05:07:36;1.00;;;0.80;;
1507;SDS011;745;48.586;10.032;2023-12-20T05:09:37;0.90;;;0.90;;
1507;SDS011;745;48.586;10.032;2023-12-20T05:11:37;0.70;;;0.70;;
1507;SDS011;745;48.586;10.032;2023-12-20T05:13:37;0.80;;;0.80;;
1507;SDS011;745;48.586;10.032;2023-12-20T05:15:38;0.80;;;0.80;;
1507;SDS011;745;48.586;10.032;2023-12-20T05:17:38;0.90;;;0.90;;
1507;SDS011;745;48.586;10.032;2023-12-20T05:19:38;0.90;;;0.90;;
1507;SDS011;745;48.586;10.032;2023-12-20T05:21:39;0.90;;;0.90;;
1507;SDS011;745;48.586;10.032;2023-12-20T05:23:39;0.80;;;0.80;;
1507;SDS011;745;48.586;10.032;2023-12-20T05:25:39;0.80;;;0.80;;
1507;SDS011;745;48.586;10.032;2023-12-20T05:27:39;0.80;;;0.80;;
1507;SDS011;745;48.586;10.032;2023-12-20T05:29:40;0.80;;;0.80;;
1507;SDS011;745;48.586;10.032;2023-12-20T05:31:40;0.80;;;0.80;;
1507;SDS011;745;48.586;10.032;2023-12-20T05:33:41;0.80;;;0.80;;
1507;SDS011;745;48.586;10.032;2023-12-20T05:35:41;1.00;;;0.90;;
1507;SDS011;745;48.586;10.032;2023-12-20T05:37:41;3.10;;;1.00;;
1507;SDS011;745;48.586;10.032;2023-12-20T05:39:42;0.93;;;0.93;;
1507;SDS011;745;48.586;10.032;2023-12-20T05:41:42;0.87;;;0.87;;
1507;SDS011;745;48.586;10.032;2023-12-20T05:43:42;0.80;;;0.80;;
1507;SDS011;745;48.586;10.032;2023-12-20T05:45:43;0.90;;;0.90;;
1507;SDS011;745;48.586;10.032;2023-12-20T05:47:43;0.80;;;0.80;;
1507;SDS011;745;48.586;10.032;2023-12-20T05:49:43;1.10;;;1.10;;
1507;SDS011;745;48.586;10.032;2023-12-20T05:51:45;0.80;;;0.80;;
1507;SDS011;745;48.586;10.032;2023-12-20T05:53:45;1.33;;;1.23;;
1507;SDS011;745;48.586;10.032;2023-12-20T05:55:46;0.80;;;0.80;;
1507;SDS011;745;48.586;10.032;2023-12-20T05:57:46;1.30;;;1.20;;
1507;SDS011;745;48.586;10.032;2023-12-20T05:59:46;1.77;;;1.67;;
1507;SDS011;745;48.586;10.032;2023-12-20T06:01:47;1.60;;;1.50;;
1507;SDS011;745;48.586;10.032;2023-12-20T06:03:47;1.47;;;1.37;;
1507;SDS011;745;48.586;10.032;2023-12-20T06:05:47;0.90;;;0.90;;
1507;SDS011;745;48.586;10.032;2023-12-20T06:07:48;0.90;;;0.90;;
1507;SDS011;745;48.586;10.032;2023-12-20T06:09:49;0.80;;;0.80;;
1507;SDS011;745;48.586;10.032;2023-12-20T06:11:50;1.00;;;1.00;;
1507;SDS011;745;48.586;10.032;2023-12-20T06:13:51;1.20;;;1.13;;
1507;SDS011;745;48.586;10.032;2023-12-20T06:15:56;1.90;;;1.80;;
1507;SDS011;745;48.586;10.032;2023-12-20T06:17:56;3.35;;;2.50;;
1507;SDS011;745;48.586;10.032;2023-12-20T06:19:57;3.50;;;3.20;;
1507;SDS011;745;48.586;10.032;2023-12-20T06:21:57;1.40;;;1.30;;
1507;SDS011;745;48.586;10.032;2023-12-20T06:23:58;3.83;;;2.83;;
1507;SDS011;745;48.586;10.032;2023-12-20T06:25:59;2.65;;;1.60;;
1507;SDS011;745;48.586;10.032;2023-12-20T06:27:59;2.87;;;2.47;;
1507;SDS011;745;48.586;10.032;2023-12-20T06:29:59;4.00;;;2.90;;
1507;SDS011;745;48.586;10.032;2023-12-20T06:32:00;2.67;;;2.47;;
1507;SDS011;745;48.586;10.032;2023-12-20T06:34:00;2.37;;;2.17;;
1507;SDS011;745;48.586;10.032;2023-12-20T06:36:01;1.93;;;1.67;;
1507;SDS011;745;48.586;10.032;2023-12-20T06:38:01;1.40;;;1.33;;
1507;SDS011;745;48.586;10.032;2023-12-20T06:40:01;2.77;;;2.40;;
1507;SDS011;745;48.586;10.032;2023-12-20T06:42:02;3.20;;;2.30;;
1507;SDS011;745;48.586;10.032;2023-12-20T06:44:02;3.10;;;2.70;;
1507;SDS011;745;48.586;10.032;2023-12-20T06:46:03;3.73;;;2.80;;
1507;SDS011;745;48.586;10.032;2023-12-20T06:48:03;3.50;;;2.70;;
1507;SDS011;745;48.586;10.032;2023-12-20T06:50:05;3.40;;;3.10;;
1507;SDS011;745;48.586;10.032;2023-12-20T06:52:05;4.82;;;3.65;;
1507;SDS011;745;48.586;10.032;2023-12-20T06:54:06;4.47;;;3.50;;
1507;SDS011;745;48.586;10.032;2023-12-20T06:56:07;3.97;;;3.10;;
1507;SDS011;745;48.586;10.032;2023-12-20T06:58:07;4.93;;;3.73;;
1507;SDS011;745;48.586;10.032;2023-12-20T07:00:08;4.07;;;3.67;;
1507;SDS011;745;48.586;10.032;2023-12-20T07:02:08;4.07;;;3.50;;
1507;SDS011;745;48.586;10.032;2023-12-20T07:04:09;1.70;;;1.60;;
1507;SDS011;745;48.586;10.032;2023-12-20T07:06:09;3.00;;;2.80;;
1507;SDS011;745;48.586;10.032;2023-12-20T07:08:10;2.50;;;2.30;;
1507;SDS011;745;48.586;10.032;2023-12-20T07:10:11;2.63;;;2.43;;
1507;SDS011;745;48.586;10.032;2023-12-20T07:12:11;1.50;;;1.40;;
1507;SDS011;745;48.586;10.032;2023-12-20T07:14:11;1.60;;;1.50;;
1507;SDS011;745;48.586;10.032;2023-12-20T07:16:12;3.97;;;3.27;;
1507;SDS011;745;48.586;10.032;2023-12-20T07:18:13;4.70;;;3.50;;
1507;SDS011;745;48.586;10.032;2023-12-20T07:20:13;2.83;;;2.33;;
1507;SDS011;745;48.586;10.032;2023-12-20T07:22:13;4.20;;;2.93;;
1507;SDS011;745;48.586;10.032;2023-12-20T07:24:14;1.47;;;1.37;;
1507;SDS011;745;48.586;10.032;2023-12-20T07:26:15;2.30;;;2.10;;
1507;SDS011;745;48.586;10.032;2023-12-20T07:28:15;2.38;;;2.05;;
1507;SDS011;745;48.586;10.032;2023-12-20T07:30:15;2.40;;;2.20;;
1507;SDS011;745;48.586;10.032;2023-12-20T07:32:16;2.97;;;2.17;;
1507;SDS011;745;48.586;10.032;2023-12-20T07:34:16;5.07;;;3.80;;
1507;SDS011;745;48.586;10.032;2023-12-20T07:36:16;3.97;;;3.57;;
1507;SDS011;745;48.586;10.032;2023-12-20T07:38:17;2.00;;;1.87;;
1507;SDS011;745;48.586;10.032;2023-12-20T07:40:17;1.57;;;1.47;;
1507;SDS011;745;48.586;10.032;2023-12-20T07:42:17;3.47;;;2.90;;
1507;SDS011;745;48.586;10.032;2023-12-20T07:44:18;1.00;;;1.00;;
1507;SDS011;745;48.586;10.032;2023-12-20T07:46:18;1.00;;;1.00;;
1507;SDS011;745;48.586;10.032;2023-12-20T07:48:22;1.05;;;1.05;;
1507;SDS011;745;48.586;10.032;2023-12-20T07:50:23;1.00;;;1.00;;
1507;SDS011;745;48.586;10.032;2023-12-20T07:52:23;1.50;;;1.40;;
1507;SDS011;745;48.586;10.032;2023-12-20T07:54:23;1.50;;;1.40;;
1507;SDS011;745;48.586;10.032;2023-12-20T07:56:23;8.07;;;4.40;;
1507;SDS011;745;48.586;10.032;2023-12-20T07:58:24;5.37;;;2.83;;
1507;SDS011;745;48.586;10.032;2023-12-20T08:00:24;3.00;;;1.83;;
1507;SDS011;745;48.586;10.032;2023-12-20T08:02:24;3.10;;;2.57;;
1507;SDS011;745;48.586;10.032;2023-12-20T08:04:25;1.60;;;1.50;;
1507;SDS011;745;48.586;10.032;2023-12-20T08:06:25;1.83;;;1.53;;
1507;SDS011;745;48.586;10.032;2023-12-20T08:08:25;1.50;;;1.40;;
1507;SDS011;745;48.586;10.032;2023-12-20T08:10:26;2.10;;;1.90;;
1507;SDS011;745;48.586;10.032;2023-12-20T08:12:29;1.90;;;1.80;;
1507;SDS011;745;48.586;10.032;2023-12-20T08:14:29;1.50;;;1.40;;
1507;SDS011;745;48.586;10.032;2023-12-20T08:16:30;1.37;;;1.27;;
1507;SDS011;745;48.586;10.032;2023-12-20T08:18:30;2.00;;;1.73;;
1507;SDS011;745;48.586;10.032;2023-12-20T08:20:30;4.43;;;3.00;;
1507;SDS011;745;48.586;10.032;2023-12-20T08:22:31;1.70;;;1.60;;
1507;SDS011;745;48.586;10.032;2023-12-20T08:24:31;2.27;;;1.73;;
1507;SDS011;745;48.586;10.032;2023-12-20T08:26:32;1.47;;;1.30;;
1507;SDS011;745;48.586;10.032;2023-12-20T08:28:33;1.40;;;1.30;;
1507;SDS011;745;48.586;10.032;2023-12-20T08:30:33;1.20;;;1.10;;
1507;SDS011;745;48.586;10.032;2023-12-20T08:32:34;1.20;;;1.10;;
1507;SDS011;745;48.586;10.032;2023-12-20T08:34:34;1.20;;;1.10;;
1507;SDS011;745;48.586;10.032;2023-12-20T08:36:35;1.60;;;1.50;;
1507;SDS011;745;48.586;10.032;2023-12-20T08:38:35;1.53;;;1.43;;
1507;SDS011;745;48.586;10.032;2023-12-20T08:40:36;2.20;;;1.73;;
1507;SDS011;745;48.586;10.032;2023-12-20T08:42:36;2.20;;;1.60;;
1507;SDS011;745;48.586;10.032;2023-12-20T08:44:36;1.40;;;1.30;;
1507;SDS011;745;48.586;10.032;2023-12-20T08:46:37;1.53;;;1.43;;
1507;SDS011;745;48.586;10.032;2023-12-20T08:48:37;2.33;;;1.63;;
1507;SDS011;745;48.586;10.032;2023-12-20T08:50:38;5.53;;;3.30;;
1507;SDS011;745;48.586;10.032;2023-12-20T08:52:39;2.35;;;2.15;;
1507;SDS011;745;48.586;10.032;2023-12-20T08:54:39;2.57;;;2.13;;
1507;SDS011;745;48.586;10.032;2023-12-20T08:56:39;2.10;;;1.90;;
1507;SDS011;745;48.586;10.032;2023-12-20T08:58:39;1.57;;;1.47;;
1507;SDS011;745;48.586;10.032;2023-12-20T09:00:40;1.57;;;1.47;;
1507;SDS011;745;48.586;10.032;2023-12-20T09:02:41;1.90;;;1.80;;
1507;SDS011;745;48.586;10.032;2023-12-20T09:04:41;1.80;;;1.70;;
1507;SDS011;745;48.586;10.032;2023-12-20T09:06:45;1.83;;;1.73;;
1507;SDS011;745;48.586;10.032;2023-12-20T09:08:45;2.25;;;2.15;;
1507;SDS011;745;48.586;10.032;2023-12-20T09:10:46;2.70;;;2.50;;
1507;SDS011;745;48.586;10.032;2023-12-20T09:12:46;4.00;;;2.50;;
1507;SDS011;745;48.586;10.032;2023-12-20T09:14:48;2.75;;;2.55;;
1507;SDS011;745;48.586;10.032;2023-12-20T09:16:49;3.20;;;2.90;;
1507;SDS011;745;48.586;10.032;2023-12-20T09:18:51;2.85;;;2.65;;
1507;SDS011;745;48.586;10.032;2023-12-20T09:20:51;4.10;;;3.07;;
1507;SDS011;745;48.586;10.032;2023-12-20T09:22:52;3.00;;;2.80;;
1507;SDS011;745;48.586;10.032;2023-12-20T09:24:52;3.87;;;3.57;;
1507;SDS011;745;48.586;10.032;2023-12-20T09:26:53;6.60;;;3.63;;
1507;SDS011;745;48.586;10.032;2023-12-20T09:28:53;3.80;;;3.20;;
1507;SDS011;745;48.586;10.032;2023-12-20T09:30:53;3.93;;;3.53;;
1507;SDS011;745;48.586;10.032;2023-12-20T09:32:54;4.07;;;3.60;;
1507;SDS011;745;48.586;10.032;2023-12-20T09:34:55;5.93;;;3.97;;
1507;SDS011;745;48.586;10.032;2023-12-20T09:36:55;3.97;;;3.00;;
1507;SDS011;745;48.586;10.032;2023-12-20T09:38:55;3.80;;;3.40;;
1507;SDS011;745;48.586;10.032;2023-12-20T09:40:55;3.50;;;3.20;;
1507;SDS011;745;48.586;10.032;2023-12-20T09:43:08;3.80;;;3.50;;
1507;SDS011;745;48.586;10.032;2023-12-20T09:45:11;4.85;;;3.50;;
1507;SDS011;745;48.586;10.032;2023-12-20T09:47:13;4.95;;;3.60;;
1507;SDS011;745;48.586;10.032;2023-12-20T09:49:15;5.35;;;4.25;;
1507;SDS011;745;48.586;10.032;2023-12-20T09:51:17;3.60;;;3.20;;
1507;SDS011;745;48.586;10.032;2023-12-20T09:53:18;3.70;;;3.37;;
1507;SDS011;745;48.586;10.032;2023-12-20T09:55:19;16.20;;;11.07;;
1507;SDS011;745;48.586;10.032;2023-12-20T09:57:20;5.68;;;4.93;;
1507;SDS011;745;48.586;10.032;2023-12-20T09:59:21;9.90;;;7.13;;
1507;SDS011;745;48.586;10.032;2023-12-20T10:01:21;4.93;;;4.07;;
1507;SDS011;745;48.586;10.032;2023-12-20T10:03:23;4.23;;;3.50;;
1507;SDS011;745;48.586;10.032;2023-12-20T10:05:29;3.80;;;3.50;;
1507;SDS011;745;48.586;10.032;2023-12-20T10:07:32;3.75;;;3.45;;
1507;SDS011;745;48.586;10.032;2023-12-20T10:09:33;4.77;;;3.70;;
1507;SDS011;745;48.586;10.032;2023-12-20T10:11:34;3.67;;;3.38;;
1507;SDS011;745;48.586;10.032;2023-12-20T10:13:39;3.72;;;3.42;;
1507;SDS011;745;48.586;10.032;2023-12-20T10:15:42;4.00;;;3.70;;
1507;SDS011;745;48.586;10.032;2023-12-20T10:17:42;3.93;;;3.53;;
1507;SDS011;745;48.586;10.032;2023-12-20T10:19:43;4.13;;;3.73;;
1507;SDS011;745;48.586;10.032;2023-12-20T10:21:43;5.90;;;3.97;;
1507;SDS011;745;48.586;10.032;2023-12-20T10:23:46;4.15;;;3.75;;
1507;SDS011;745;48.586;10.032;2023-12-20T10:25:55;5.03;;;4.07;;
1507;SDS011;745;48.586;10.032;2023-12-20T10:28:14;5.05;;;4.55;;
1507;SDS011;745;48.586;10.032;2023-12-20T10:30:21;4.47;;;4.07;;
1507;SDS011;745;48.586;10.032;2023-12-20T10:34:23;3.67;;;3.38;;
1507;SDS011;745;48.586;10.032;2023-12-20T10:36:28;3.67;;;3.37;;
1507;SDS011;745;48.586;10.032;2023-12-20T10:38:30;4.28;;;3.88;;
1507;SDS011;745;48.586;10.032;2023-12-20T10:40:30;4.20;;;3.80;;
1507;SDS011;745;48.586;10.032;2023-12-20T10:42:31;4.20;;;3.20;;
1507;SDS011;745;48.586;10.032;2023-12-20T10:44:33;4.40;;;3.40;;
1507;SDS011;745;48.586;10.032;2023-12-20T10:46:33;3.60;;;3.17;;
1507;SDS011;745;48.586;10.032;2023-12-20T10:48:34;4.87;;;3.37;;
1507;SDS011;745;48.586;10.032;2023-12-20T10:50:34;4.80;;;3.30;;
1507;SDS011;745;48.586;10.032;2023-12-20T10:52:38;3.50;;;3.05;;
1507;SDS011;745;48.586;10.032;2023-12-20T10:54:41;6.17;;;3.00;;
1507;SDS011;745;48.586;10.032;2023-12-20T10:56:42;4.68;;;2.80;;
1507;SDS011;745;48.586;10.032;2023-12-20T10:58:42;6.00;;;2.90;;
1507;SDS011;745;48.586;10.032;2023-12-20T11:00:45;3.40;;;2.80;;
1507;SDS011;745;48.586;10.032;2023-12-20T11:02:48;5.43;;;2.88;;
1507;SDS011;745;48.586;10.032;2023-12-20T11:04:58;7.85;;;2.85;;
1507;SDS011;745;48.586;10.032;2023-12-20T11:07:11;4.72;;;2.13;;
1507;SDS011;745;48.586;10.032;2023-12-20T11:13:32;3.80;;;2.53;;
1507;SDS011;745;48.586;10.032;2023-12-20T11:15:36;4.00;;;2.60;;
1507;SDS011;745;48.586;10.032;2023-12-20T11:17:38;6.93;;;2.50;;
1507;SDS011;745;48.586;10.032;2023-12-20T11:21:58;3.45;;;2.40;;
1507;SDS011;745;48.586;10.032;2023-12-20T11:23:59;4.20;;;2.60;;
1507;SDS011;745;48.586;10.032;2023-12-20T11:26:00;6.93;;;2.80;;
1507;SDS011;745;48.586;10.032;2023-12-20T11:28:10;2.92;;;2.30;;
1507;SDS011;745;48.586;10.032;2023-12-20T11:30:13;5.00;;;2.25;;
1507;SDS011;745;48.586;10.032;2023-12-20T11:32:56;4.93;;;2.80;;
1507;SDS011;745;48.586;10.032;2023-12-20T11:34:37;2.40;;;2.20;;
1507;SDS011;745;48.586;10.032;2023-12-20T11:36:38;3.20;;;2.60;;
1507;SDS011;745;48.586;10.032;2023-12-20T11:38:48;2.60;;;2.25;;
1507;SDS011;745;48.586;10.032;2023-12-20T11:40:54;4.00;;;2.42;;
1507;SDS011;745;48.586;10.032;2023-12-20T11:42:54;2.78;;;2.40;;
1507;SDS011;745;48.586;10.032;2023-12-20T11:44:55;5.13;;;2.50;;
1507;SDS011;745;48.586;10.032;2023-12-20T11:46:56;2.50;;;2.30;;
1507;SDS011;745;48.586;10.032;2023-12-20T11:48:56;4.17;;;3.00;;
1507;SDS011;745;48.586;10.032;2023-12-20T11:50:56;5.43;;;2.40;;
1507;SDS011;745;48.586;10.032;2023-12-20T11:52:57;2.73;;;2.33;;
1507;SDS011;745;48.586;10.032;2023-12-20T11:54:57;2.83;;;2.30;;
1507;SDS011;745;48.586;10.032;2023-12-20T11:56:57;2.77;;;2.10;;
1507;SDS011;745;48.586;10.032;2023-12-20T11:58:58;2.73;;;2.50;;
1507;SDS011;745;48.586;10.032;2023-12-20T12:00:58;4.30;;;2.53;;
1507;SDS011;745;48.586;10.032;2023-12-20T12:02:59;4.70;;;2.00;;
1507;SDS011;745;48.586;10.032;2023-12-20T12:04:59;6.97;;;2.87;;
1507;SDS011;745;48.586;10.032;2023-12-20T12:07:00;3.97;;;2.20;;
1507;SDS011;745;48.586;10.032;2023-12-20T12:09:00;3.27;;;2.30;;
1507;SDS011;745;48.586;10.032;2023-12-20T12:11:00;3.47;;;2.50;;
1507;SDS011;745;48.586;10.032;2023-12-20T12:13:01;6.00;;;2.57;;
1507;SDS011;745;48.586;10.032;2023-12-20T12:15:01;3.13;;;2.30;;
1507;SDS011;745;48.586;10.032;2023-12-20T12:17:03;3.30;;;2.25;;
1507;SDS011;745;48.586;10.032;2023-12-20T12:19:04;3.05;;;2.08;;
1507;SDS011;745;48.586;10.032;2023-12-20T12:21:04;5.10;;;2.37;;
1507;SDS011;745;48.586;10.032;2023-12-20T12:23:05;2.30;;;2.10;;
1507;SDS011;745;48.586;10.032;2023-12-20T12:25:09;4.50;;;2.42;;
1507;SDS011;745;48.586;10.032;2023-12-20T12:27:14;4.03;;;2.20;;
1507;SDS011;745;48.586;10.032;2023-12-20T12:29:15;6.05;;;2.15;;
1507;SDS011;745;48.586;10.032;2023-12-20T12:31:15;3.10;;;2.00;;
1507;SDS011;745;48.586;10.032;2023-12-20T12:33:16;6.70;;;2.87;;
1507;SDS011;745;48.586;10.032;2023-12-20T12:35:17;4.95;;;2.58;;
1507;SDS011;745;48.586;10.032;2023-12-20T12:37:18;5.55;;;2.35;;
1507;SDS011;745;48.586;10.032;2023-12-20T12:39:19;3.07;;;2.13;;